createdAt,value
2018-11-26T00:00:21.230Z,93.30
2018-11-26T00:02:50.064Z,93.30
2018-11-26T00:05:18.727Z,93.30
2018-11-26T00:08:03.787Z,93.20
2018-11-26T00:10:43.213Z,93.10
2018-11-26T00:13:11.594Z,93.10
2018-11-26T00:15:39.950Z,93.10
2018-11-26T00:18:08.319Z,93.00
2018-11-26T00:20:36.667Z,92.90
2018-11-26T00:23:05.358Z,92.80
2018-11-26T00:25:33.663Z,92.60
2018-11-26T00:28:02.050Z,92.50
2018-11-26T00:30:30.618Z,92.20
2018-11-26T00:32:58.922Z,92.10
2018-11-26T00:35:27.279Z,91.90
2018-11-26T00:37:55.615Z,91.70
2018-11-26T00:40:23.958Z,91.40
2018-11-26T00:42:52.318Z,91.20
2018-11-26T00:45:20.736Z,90.90
2018-11-26T00:47:49.048Z,90.70
2018-11-26T00:50:17.394Z,90.40
2018-11-26T00:52:45.747Z,90.30
2018-11-26T00:55:15.877Z,90.10
2018-11-26T00:57:44.194Z,89.90
2018-11-26T01:00:13.044Z,89.70
2018-11-26T01:02:41.405Z,89.50
2018-11-26T01:05:22.751Z,89.30
2018-11-26T01:07:51.084Z,89.10
2018-11-26T01:10:20.118Z,88.80
2018-11-26T01:12:48.495Z,88.60
2018-11-26T01:15:16.919Z,88.40
2018-11-26T01:17:45.231Z,88.10
2018-11-26T01:20:13.579Z,88.00
2018-11-26T01:22:41.935Z,87.80
2018-11-26T01:25:10.258Z,87.60
2018-11-26T01:27:38.637Z,87.40
2018-11-26T01:30:08.618Z,87.30
2018-11-26T01:32:37.188Z,87.10
2018-11-26T01:35:06.618Z,86.80
2018-11-26T01:37:35.010Z,86.60
2018-11-26T01:40:03.716Z,86.40
2018-11-26T01:42:32.082Z,86.10
2018-11-26T01:45:00.467Z,85.80
2018-11-26T01:47:28.854Z,85.50
2018-11-26T01:49:59.139Z,85.40
2018-11-26T01:52:27.448Z,85.40
2018-11-26T01:54:55.826Z,85.60
2018-11-26T01:57:24.140Z,86.00
2018-11-26T01:59:52.478Z,86.40
2018-11-26T02:02:20.822Z,86.70
2018-11-26T02:04:49.162Z,86.90
2018-11-26T02:07:17.530Z,87.20
2018-11-26T02:09:45.923Z,87.40
2018-11-26T02:12:14.242Z,87.30
2018-11-26T02:14:42.575Z,87.40
2018-11-26T02:17:10.916Z,87.40
2018-11-26T02:19:39.271Z,87.30
2018-11-26T02:22:07.623Z,87.20
2018-11-26T02:24:35.959Z,87.10
2018-11-26T02:27:04.443Z,87.00
2018-11-26T02:29:33.714Z,86.90
2018-11-26T02:32:02.147Z,86.80
2018-11-26T02:34:30.540Z,86.90
2018-11-26T02:36:58.852Z,87.00
2018-11-26T02:39:27.174Z,87.10
2018-11-26T02:41:55.531Z,87.40
2018-11-26T02:44:23.906Z,87.70
2018-11-26T02:46:52.249Z,88.10
2018-11-26T02:49:20.600Z,88.50
2018-11-26T02:51:48.924Z,88.80
2018-11-26T02:54:17.275Z,89.10
2018-11-26T02:56:45.622Z,89.40
2018-11-26T02:59:13.955Z,89.70
2018-11-26T03:01:42.261Z,89.90
2018-11-26T03:04:14.397Z,90.10
2018-11-26T03:06:42.911Z,90.30
2018-11-26T03:09:11.276Z,90.50
2018-11-26T03:11:39.632Z,90.80
2018-11-26T03:14:08.011Z,91.00
2018-11-26T03:16:36.360Z,91.30
2018-11-26T03:19:04.900Z,91.50
2018-11-26T03:21:33.210Z,91.60
2018-11-26T03:24:01.601Z,91.60
2018-11-26T03:26:29.902Z,91.50
2018-11-26T03:28:58.251Z,91.50
2018-11-26T03:31:26.601Z,91.40
2018-11-26T03:33:54.922Z,91.40
2018-11-26T03:36:23.247Z,91.40
2018-11-26T03:38:52.718Z,91.50
2018-11-26T03:41:21.533Z,91.40
2018-11-26T03:43:49.915Z,91.40
2018-11-26T03:46:18.280Z,91.20
2018-11-26T03:48:46.598Z,91.00
2018-11-26T03:51:14.990Z,90.80
2018-11-26T03:53:43.435Z,90.60
2018-11-26T03:56:11.746Z,90.50
2018-11-26T03:58:40.074Z,90.40
2018-11-26T04:01:08.455Z,90.60
2018-11-26T04:03:36.752Z,90.70
2018-11-26T04:06:05.519Z,91.00
2018-11-26T04:08:33.847Z,91.30
2018-11-26T04:11:02.176Z,91.60
2018-11-26T04:13:30.514Z,91.90
2018-11-26T04:15:58.877Z,92.30
2018-11-26T04:18:27.246Z,92.70
2018-11-26T04:20:55.557Z,93.00
2018-11-26T04:23:23.955Z,93.20
2018-11-26T04:25:52.314Z,93.30
2018-11-26T04:28:20.631Z,93.30
2018-11-26T04:30:49.350Z,93.20
2018-11-26T04:33:17.726Z,93.20
2018-11-26T04:35:46.056Z,93.00
2018-11-26T04:38:14.455Z,92.90
2018-11-26T04:40:42.775Z,92.80
2018-11-26T04:43:11.103Z,92.60
2018-11-26T04:45:39.453Z,92.50
2018-11-26T04:48:07.819Z,92.50
2018-11-26T04:50:36.209Z,92.60
2018-11-26T04:53:04.573Z,92.60
2018-11-26T04:55:32.926Z,92.60
2018-11-26T04:58:01.291Z,92.50
2018-11-26T05:00:29.687Z,92.50
2018-11-26T05:02:58.035Z,92.40
2018-11-26T05:05:26.366Z,92.30
2018-11-26T05:07:54.743Z,92.30
2018-11-26T05:10:25.883Z,92.40
2018-11-26T05:12:54.237Z,92.50
2018-11-26T05:15:22.549Z,92.60
2018-11-26T05:17:50.899Z,92.60
2018-11-26T05:20:19.246Z,92.70
2018-11-26T05:22:47.682Z,92.70
2018-11-26T05:25:16.037Z,92.60
2018-11-26T05:27:44.393Z,92.50
2018-11-26T05:30:13.479Z,92.40
2018-11-26T05:32:42.091Z,92.40
2018-11-26T05:35:11.335Z,92.30
2018-11-26T05:37:39.679Z,92.20
2018-11-26T05:40:12.464Z,92.20
2018-11-26T05:42:41.138Z,92.20
2018-11-26T05:45:11.671Z,92.10
2018-11-26T05:47:40.022Z,92.20
2018-11-26T05:50:09.801Z,92.30
2018-11-26T05:52:38.767Z,92.30
2018-11-26T05:55:10.353Z,92.30
2018-11-26T05:57:38.686Z,92.40
2018-11-26T06:00:16.167Z,92.50
2018-11-26T06:02:44.514Z,92.50
2018-11-26T06:05:12.852Z,92.40
2018-11-26T06:07:41.202Z,92.40
2018-11-26T06:10:09.875Z,92.50
2018-11-26T06:12:38.286Z,92.50
2018-11-26T06:15:09.456Z,92.60
2018-11-26T06:17:37.844Z,92.50
2018-11-26T06:20:07.303Z,92.40
2018-11-26T06:22:35.676Z,92.30
2018-11-26T06:25:04.920Z,92.20
2018-11-26T06:27:33.265Z,92.10
2018-11-26T06:30:01.620Z,92.20
2018-11-26T06:32:30.040Z,92.30
2018-11-26T06:34:58.383Z,92.50
2018-11-26T06:37:26.726Z,92.60
2018-11-26T06:39:55.079Z,92.50
2018-11-26T06:42:23.375Z,92.40
2018-11-26T06:44:51.727Z,92.20
2018-11-26T06:47:20.086Z,92.00
2018-11-26T06:49:48.451Z,91.80
2018-11-26T06:52:16.827Z,91.70
2018-11-26T06:54:45.189Z,91.70
2018-11-26T06:57:13.603Z,91.60
2018-11-26T06:59:41.995Z,91.60
2018-11-26T07:02:10.383Z,91.50
2018-11-26T07:04:38.867Z,91.50
2018-11-26T07:07:07.203Z,91.40
2018-11-26T07:09:35.602Z,91.30
2018-11-26T07:12:04.074Z,91.20
2018-11-26T07:14:32.416Z,91.10
2018-11-26T07:17:03.743Z,90.80
2018-11-26T07:19:32.061Z,72.20
2018-11-26T07:22:00.404Z,63.00
2018-11-26T07:24:28.799Z,61.50
2018-11-26T07:26:57.140Z,60.30
2018-11-26T07:29:25.487Z,59.30
2018-11-26T07:31:53.980Z,58.80
2018-11-26T07:34:22.408Z,58.00
2018-11-26T07:36:50.779Z,57.70
2018-11-26T07:39:19.173Z,56.30
2018-11-26T07:41:47.502Z,56.00
2018-11-26T07:44:15.842Z,55.60
2018-11-26T07:46:44.154Z,55.40
2018-11-26T07:49:12.727Z,55.50
2018-11-26T07:51:41.081Z,56.50
2018-11-26T07:54:09.470Z,53.90
2018-11-26T07:56:37.830Z,53.30
2018-11-26T07:59:06.202Z,53.10
2018-11-26T08:01:34.551Z,61.00
2018-11-26T08:04:02.891Z,62.00
2018-11-26T08:06:31.287Z,62.30
2018-11-26T08:08:59.624Z,62.80
2018-11-26T08:11:27.938Z,63.20
2018-11-26T08:13:56.292Z,63.50
2018-11-26T08:16:25.652Z,64.10
2018-11-26T08:18:54.074Z,65.90
2018-11-26T08:21:22.392Z,66.30
2018-11-26T08:23:51.032Z,66.90
2018-11-26T08:26:19.434Z,67.50
2018-11-26T08:28:47.766Z,69.00
2018-11-26T08:31:16.115Z,70.30
2018-11-26T08:33:44.459Z,70.50
2018-11-26T08:36:13.078Z,71.00
2018-11-26T08:38:45.456Z,71.50
2018-11-26T08:41:14.881Z,71.50
2018-11-26T08:43:49.047Z,72.00
2018-11-26T08:46:22.797Z,72.90
2018-11-26T08:48:56.537Z,73.60
2018-11-26T08:51:24.871Z,74.20
2018-11-26T08:53:53.230Z,74.70
2018-11-26T08:56:21.571Z,75.20
2018-11-26T08:58:49.955Z,75.40
2018-11-26T09:01:23.643Z,75.50
2018-11-26T09:03:56.071Z,75.50
2018-11-26T09:06:24.432Z,74.90
2018-11-26T09:08:52.771Z,74.50
2018-11-26T09:11:21.095Z,73.80
2018-11-26T09:13:49.523Z,73.10
2018-11-26T09:16:17.902Z,72.60
2018-11-26T09:18:46.243Z,71.80
2018-11-26T09:21:14.555Z,71.50
2018-11-26T09:23:42.964Z,71.20
2018-11-26T09:26:11.335Z,71.40
2018-11-26T09:28:39.887Z,71.50
2018-11-26T09:31:08.263Z,71.60
2018-11-26T09:33:36.627Z,72.20
2018-11-26T09:36:05.269Z,72.70
2018-11-26T09:38:33.643Z,72.80
2018-11-26T09:41:02.018Z,72.70
2018-11-26T09:43:30.419Z,72.40
2018-11-26T09:45:58.809Z,72.50
2018-11-26T09:48:27.326Z,72.10
2018-11-26T09:50:55.728Z,71.70
2018-11-26T09:53:24.101Z,71.40
2018-11-26T09:55:52.491Z,71.50
2018-11-26T09:58:20.869Z,71.50
2018-11-26T10:00:49.314Z,71.20
2018-11-26T10:03:17.764Z,71.00
2018-11-26T10:05:46.149Z,70.80
2018-11-26T10:08:16.576Z,70.70
2018-11-26T10:10:44.933Z,70.10
2018-11-26T10:13:13.321Z,69.50
2018-11-26T10:15:41.693Z,69.10
2018-11-26T10:18:10.137Z,68.80
2018-11-26T10:20:38.637Z,68.90
2018-11-26T10:23:08.830Z,69.60
2018-11-26T10:25:37.736Z,69.90
2018-11-26T10:28:06.290Z,70.20
2018-11-26T10:30:34.696Z,70.50
2018-11-26T10:33:03.085Z,70.50
2018-11-26T10:35:31.615Z,70.80
2018-11-26T10:38:00.096Z,70.70
2018-11-26T10:40:28.513Z,70.70
2018-11-26T10:42:56.909Z,71.00
2018-11-26T10:45:25.688Z,71.30
2018-11-26T10:47:54.122Z,71.30
2018-11-26T10:50:25.093Z,71.30
2018-11-26T10:53:03.171Z,71.30
2018-11-26T10:55:35.261Z,71.40
2018-11-26T10:58:03.909Z,71.50
2018-11-26T11:00:37.942Z,71.50
2018-11-26T11:03:06.494Z,71.50
2018-11-26T11:05:35.849Z,71.60
2018-11-26T11:08:04.634Z,71.90
2018-11-26T11:10:33.447Z,72.10
2018-11-26T11:13:01.821Z,71.80
2018-11-26T11:15:30.240Z,71.40
2018-11-26T11:17:58.645Z,71.20
2018-11-26T11:20:28.018Z,70.70
2018-11-26T11:22:56.412Z,70.20
2018-11-26T11:25:24.921Z,70.10
2018-11-26T11:27:53.382Z,69.80
2018-11-26T11:30:23.236Z,69.80
2018-11-26T11:32:51.716Z,69.50
2018-11-26T11:35:20.287Z,69.20
2018-11-26T11:37:49.406Z,69.10
2018-11-26T11:40:23.717Z,68.90
2018-11-26T11:42:52.285Z,68.70
2018-11-26T11:45:21.066Z,68.50
2018-11-26T11:47:49.427Z,68.40
2018-11-26T11:50:18.898Z,68.10
2018-11-26T11:52:47.562Z,68.00
2018-11-26T11:55:16.974Z,67.70
2018-11-26T11:57:45.518Z,67.50
2018-11-26T12:00:24.825Z,67.20
2018-11-26T12:02:53.249Z,66.90
2018-11-26T12:05:21.680Z,66.70
2018-11-26T12:07:50.119Z,66.30
2018-11-26T12:10:18.516Z,66.20
2018-11-26T12:12:46.878Z,65.90
2018-11-26T12:15:16.263Z,65.80
2018-11-26T12:17:45.811Z,65.90
2018-11-26T12:20:14.786Z,65.70
2018-11-26T12:22:43.570Z,65.80
2018-11-26T12:25:15.102Z,65.70
2018-11-26T12:27:43.645Z,65.80
2018-11-26T12:30:29.629Z,66.00
2018-11-26T12:32:58.002Z,66.20
2018-11-26T12:35:26.831Z,66.50
2018-11-26T12:37:55.204Z,66.70
2018-11-26T12:40:24.567Z,67.00
2018-11-26T12:42:54.185Z,67.30
2018-11-26T12:45:23.670Z,67.50
2018-11-26T12:47:52.072Z,67.80
2018-11-26T12:50:20.559Z,68.10
2018-11-26T12:52:49.150Z,68.90
2018-11-26T12:55:19.334Z,69.70
2018-11-26T12:57:48.541Z,70.20
2018-11-26T13:00:19.391Z,70.60
2018-11-26T13:02:51.679Z,71.00
2018-11-26T13:05:20.702Z,71.00
2018-11-26T13:07:49.518Z,71.20
2018-11-26T13:10:19.322Z,70.90
2018-11-26T13:12:48.390Z,70.60
2018-11-26T13:15:31.687Z,70.30
2018-11-26T13:18:00.125Z,69.90
2018-11-26T13:20:29.603Z,69.70
2018-11-26T13:22:58.169Z,69.50
2018-11-26T13:25:29.680Z,69.70
2018-11-26T13:28:01.308Z,69.90
2018-11-26T13:30:31.376Z,70.10
2018-11-26T13:33:01.205Z,70.40
2018-11-26T13:35:29.911Z,70.80
2018-11-26T13:37:58.309Z,71.00
2018-11-26T13:40:26.805Z,71.10
2018-11-26T13:42:55.210Z,71.20
2018-11-26T13:45:26.981Z,71.20
2018-11-26T13:47:55.371Z,71.00
2018-11-26T13:50:39.973Z,70.90
2018-11-26T13:53:08.321Z,70.90
2018-11-26T13:55:36.751Z,71.00
2018-11-26T13:58:05.440Z,71.10
2018-11-26T14:00:33.812Z,71.20
2018-11-26T14:03:04.572Z,71.60
2018-11-26T14:05:33.599Z,72.00
2018-11-26T14:08:01.977Z,72.30
2018-11-26T14:10:30.333Z,72.70
2018-11-26T14:13:04.957Z,73.50
2018-11-26T14:15:33.349Z,74.00
2018-11-26T14:18:01.806Z,74.10
2018-11-26T14:20:30.197Z,73.90
2018-11-26T14:22:58.712Z,73.70
2018-11-26T14:25:27.092Z,73.70
2018-11-26T14:27:55.495Z,73.30
2018-11-26T14:30:25.681Z,72.80
2018-11-26T14:32:54.461Z,72.60
2018-11-26T14:35:22.836Z,72.30
2018-11-26T14:37:55.089Z,72.20
2018-11-26T14:40:25.747Z,71.90
2018-11-26T14:42:54.160Z,71.80
2018-11-26T14:45:22.585Z,71.80
2018-11-26T14:47:50.934Z,71.80
2018-11-26T14:50:19.295Z,72.00
2018-11-26T14:52:48.519Z,72.20
2018-11-26T14:55:19.085Z,72.50
2018-11-26T14:57:47.473Z,72.80
2018-11-26T15:00:16.951Z,73.10
2018-11-26T15:02:45.408Z,73.40
2018-11-26T15:05:13.993Z,73.70
2018-11-26T15:07:42.410Z,73.70
2018-11-26T15:10:13.946Z,73.90
2018-11-26T15:12:42.507Z,74.00
2018-11-26T15:15:15.614Z,74.10
2018-11-26T15:17:44.606Z,74.20
2018-11-26T15:20:14.934Z,74.40
2018-11-26T15:22:43.339Z,74.60
2018-11-26T15:25:12.871Z,74.80
2018-11-26T15:27:41.698Z,74.90
2018-11-26T15:30:11.700Z,75.10
2018-11-26T15:32:40.424Z,75.20
2018-11-26T15:35:11.464Z,74.90
2018-11-26T15:37:39.822Z,74.60
2018-11-26T15:40:09.240Z,74.30
2018-11-26T15:42:37.645Z,74.10
2018-11-26T15:45:10.289Z,73.90
2018-11-26T15:47:38.693Z,73.90
2018-11-26T15:50:07.521Z,74.10
2018-11-26T15:52:35.876Z,74.50
2018-11-26T15:55:04.628Z,74.90
2018-11-26T15:57:33.054Z,75.20
2018-11-26T16:00:01.642Z,75.50
2018-11-26T16:02:30.322Z,75.80
2018-11-26T16:04:58.772Z,76.30
2018-11-26T16:07:27.145Z,76.80
2018-11-26T16:09:55.552Z,77.60
2018-11-26T16:12:23.876Z,78.20
2018-11-26T16:14:52.345Z,78.50
2018-11-26T16:17:20.701Z,78.60
2018-11-26T16:19:49.124Z,78.70
2018-11-26T16:22:17.474Z,78.80
2018-11-26T16:24:45.849Z,78.60
2018-11-26T16:27:14.224Z,78.30
2018-11-26T16:29:42.588Z,78.00
2018-11-26T16:32:10.943Z,78.00
2018-11-26T16:34:39.365Z,77.80
2018-11-26T16:37:07.828Z,77.80
2018-11-26T16:39:36.229Z,77.90
2018-11-26T16:42:04.639Z,78.20
2018-11-26T16:44:33.717Z,78.60
2018-11-26T16:47:02.232Z,79.00
2018-11-26T16:49:30.572Z,79.30
2018-11-26T16:51:58.936Z,79.60
2018-11-26T16:54:27.349Z,79.70
2018-11-26T16:56:55.745Z,79.80
2018-11-26T16:59:24.152Z,79.90
2018-11-26T17:01:52.509Z,80.00
2018-11-26T17:04:20.948Z,80.10
2018-11-26T17:06:49.354Z,80.10
2018-11-26T17:09:17.779Z,80.20
2018-11-26T17:11:46.122Z,80.20
2018-11-26T17:14:14.492Z,80.10
2018-11-26T17:16:42.850Z,80.00
2018-11-26T17:19:11.232Z,79.90
2018-11-26T17:21:39.742Z,79.80
2018-11-26T17:24:08.213Z,79.60
2018-11-26T17:26:36.780Z,79.40
2018-11-26T17:29:05.699Z,79.40
2018-11-26T17:31:34.181Z,79.40
2018-11-26T17:34:02.645Z,79.50
2018-11-26T17:36:31.205Z,79.60
2018-11-26T17:38:59.607Z,79.80
2018-11-26T17:41:28.172Z,80.10
2018-11-26T17:43:56.583Z,80.20
2018-11-26T17:46:24.952Z,80.40
2018-11-26T17:48:53.352Z,80.50
2018-11-26T17:51:21.784Z,80.80
2018-11-26T17:53:50.310Z,80.90
2018-11-26T17:56:18.762Z,81.00
2018-11-26T17:58:47.191Z,81.00
2018-11-26T18:01:20.892Z,81.00
2018-11-26T18:03:49.298Z,81.00
2018-11-26T18:06:18.188Z,80.80
2018-11-26T18:08:46.556Z,80.80
2018-11-26T18:11:15.095Z,80.70
2018-11-26T18:13:43.485Z,80.70
2018-11-26T18:16:12.007Z,80.60
2018-11-26T18:18:40.521Z,80.60
2018-11-26T18:21:08.967Z,80.50
2018-11-26T18:23:37.863Z,80.40
2018-11-26T18:26:06.289Z,80.30
2018-11-26T18:28:34.679Z,80.20
2018-11-26T18:31:03.071Z,80.00
2018-11-26T18:33:31.513Z,79.80
2018-11-26T18:36:01.889Z,79.50
2018-11-26T18:38:30.601Z,79.00
2018-11-26T18:40:58.984Z,78.60
2018-11-26T18:43:27.469Z,78.20
2018-11-26T18:45:55.928Z,77.90
2018-11-26T18:48:24.832Z,77.60
2018-11-26T18:50:53.460Z,77.40
2018-11-26T18:53:22.092Z,77.20
2018-11-26T18:55:50.498Z,77.10
2018-11-26T18:58:18.919Z,76.80
2018-11-26T19:00:50.904Z,76.60
2018-11-26T19:03:20.514Z,76.40
2018-11-26T19:05:50.285Z,76.40
2018-11-26T19:08:18.773Z,76.40
2018-11-26T19:10:48.038Z,76.30
2018-11-26T19:13:22.988Z,76.30
2018-11-26T19:15:52.777Z,76.30
2018-11-26T19:18:23.320Z,76.20
2018-11-26T19:20:51.939Z,76.10
2018-11-26T19:23:20.519Z,75.90
2018-11-26T19:25:50.295Z,75.80
2018-11-26T19:28:20.544Z,75.60
2018-11-26T19:30:47.115Z,75.40
2018-11-26T19:33:15.453Z,75.20
2018-11-26T19:35:43.817Z,75.00
2018-11-26T19:38:12.223Z,74.90
2018-11-26T19:40:40.857Z,74.60
2018-11-26T19:43:09.396Z,74.50
2018-11-26T19:45:38.063Z,74.40
2018-11-26T19:48:07.268Z,74.50
2018-11-26T19:50:35.740Z,74.40
2018-11-26T19:53:05.027Z,74.20
2018-11-26T19:55:33.424Z,74.10
2018-11-26T19:58:01.957Z,74.00
2018-11-26T20:00:30.754Z,73.90
2018-11-26T20:03:06.520Z,73.60
2018-11-26T20:05:39.898Z,73.50
2018-11-26T20:08:08.392Z,73.40
2018-11-26T20:10:36.803Z,73.30
2018-11-26T20:13:05.383Z,73.10
2018-11-26T20:15:34.839Z,73.30
2018-11-26T20:18:03.266Z,73.50
2018-11-26T20:20:31.690Z,73.90
2018-11-26T20:23:00.173Z,74.30
2018-11-26T20:25:28.876Z,75.30
2018-11-26T20:27:57.219Z,76.20
2018-11-26T20:30:25.619Z,77.00
2018-11-26T20:32:54.005Z,78.00
2018-11-26T20:35:22.356Z,78.80
2018-11-26T20:37:50.684Z,79.50
2018-11-26T20:40:19.091Z,79.80
2018-11-26T20:42:49.941Z,80.20
2018-11-26T20:45:18.350Z,80.50
2018-11-26T20:47:47.591Z,81.10
2018-11-26T20:50:20.316Z,81.60
2018-11-26T20:52:48.782Z,82.40
2018-11-26T20:55:19.652Z,82.90
2018-11-26T20:57:48.847Z,83.20
2018-11-26T21:00:19.335Z,83.30
2018-11-26T21:02:48.837Z,83.20
2018-11-26T21:05:17.329Z,83.20
2018-11-26T21:07:45.830Z,83.00
2018-11-26T21:10:15.039Z,82.80
2018-11-26T21:12:43.491Z,82.00
2018-11-26T21:15:14.856Z,81.40
2018-11-26T21:17:44.680Z,81.00
2018-11-26T21:20:26.268Z,80.20
2018-11-26T21:22:55.261Z,79.40
2018-11-26T21:25:23.693Z,78.90
2018-11-26T21:27:52.088Z,78.50
2018-11-26T21:30:20.458Z,78.00
2018-11-26T21:32:48.865Z,77.70
2018-11-26T21:35:19.018Z,77.20
2018-11-26T21:37:49.681Z,76.90
2018-11-26T21:40:21.242Z,76.50
2018-11-26T21:42:49.598Z,76.40
2018-11-26T21:45:25.329Z,76.30
2018-11-26T21:47:53.706Z,76.30
2018-11-26T21:50:22.242Z,76.30
2018-11-26T21:52:50.616Z,76.50
2018-11-26T21:55:19.699Z,76.90
2018-11-26T21:57:48.044Z,77.90
2018-11-26T22:00:25.018Z,78.20
2018-11-26T22:02:53.799Z,78.90
2018-11-26T22:05:22.225Z,79.40
2018-11-26T22:07:50.636Z,79.90
2018-11-26T22:10:21.787Z,80.60
2018-11-26T22:12:52.218Z,81.10
2018-11-26T22:15:20.626Z,81.40
2018-11-26T22:17:49.092Z,81.70
2018-11-26T22:20:26.477Z,81.90
2018-11-26T22:22:55.002Z,82.20
2018-11-26T22:25:23.351Z,82.50
2018-11-26T22:27:52.280Z,83.90
2018-11-26T22:30:21.787Z,85.40
2018-11-26T22:32:50.156Z,86.90
2018-11-26T22:35:18.524Z,87.50
2018-11-26T22:37:46.869Z,88.20
2018-11-26T22:40:16.251Z,88.60
2018-11-26T22:42:44.741Z,88.90
2018-11-26T22:45:15.999Z,88.80
2018-11-26T22:47:46.843Z,89.10
2018-11-26T22:50:15.538Z,89.00
2018-11-26T22:52:43.955Z,88.70
2018-11-26T22:55:13.316Z,88.30
2018-11-26T22:57:42.212Z,88.00
2018-11-26T23:00:15.840Z,87.80
2018-11-26T23:02:44.252Z,87.50
2018-11-26T23:05:12.630Z,87.30
2018-11-26T23:07:41.007Z,87.30
2018-11-26T23:10:09.732Z,87.40
2018-11-26T23:12:38.113Z,87.60
2018-11-26T23:15:11.386Z,88.10
2018-11-26T23:17:39.952Z,88.40
2018-11-26T23:20:12.322Z,88.80
2018-11-26T23:22:40.673Z,89.10
2018-11-26T23:25:10.415Z,89.20
2018-11-26T23:27:38.868Z,89.50
2018-11-26T23:30:26.293Z,89.60
2018-11-26T23:32:57.312Z,89.80
2018-11-26T23:35:25.691Z,90.00
2018-11-26T23:37:54.077Z,90.10
2018-11-26T23:40:22.496Z,90.40
2018-11-26T23:42:50.892Z,90.60
2018-11-26T23:45:20.247Z,90.70
2018-11-26T23:47:48.631Z,91.00
2018-11-26T23:50:17.224Z,91.20
2018-11-26T23:52:45.977Z,91.40
2018-11-26T23:55:19.205Z,91.70
2018-11-26T23:57:47.585Z,91.90
